createdAt,value
2018-09-04T00:04:11.645Z,18.94
2018-09-04T00:09:15.238Z,18.89
2018-09-04T00:14:18.747Z,18.82
2018-09-04T00:19:22.306Z,18.77
2018-09-04T00:24:25.788Z,18.73
2018-09-04T00:29:29.238Z,18.69
2018-09-04T00:34:32.840Z,18.67
2018-09-04T00:39:36.305Z,18.65
2018-09-04T00:44:39.733Z,18.54
2018-09-04T00:49:43.233Z,18.45
2018-09-04T00:54:46.687Z,18.41
2018-09-04T00:59:50.208Z,18.34
2018-09-04T01:04:53.712Z,18.34
2018-09-04T01:09:57.295Z,18.27
2018-09-04T01:15:00.952Z,18.26
2018-09-04T01:20:05.261Z,18.24
2018-09-04T01:25:08.758Z,18.18
2018-09-04T01:30:12.289Z,18.09
2018-09-04T01:35:15.848Z,18.03
2018-09-04T01:40:19.320Z,18.01
2018-09-04T01:45:22.798Z,17.93
2018-09-04T01:50:26.250Z,17.82
2018-09-04T01:56:32.597Z,17.75
2018-09-04T02:01:36.846Z,17.67
2018-09-04T02:06:40.393Z,17.65
2018-09-04T02:11:43.939Z,17.63
2018-09-04T02:16:47.509Z,17.60
2018-09-04T02:21:51.421Z,17.55
2018-09-04T02:26:54.968Z,17.44
2018-09-04T02:31:58.533Z,17.36
2018-09-04T02:37:02.072Z,17.37
2018-09-04T02:42:06.160Z,17.36
2018-09-04T02:47:09.685Z,17.36
2018-09-04T02:52:13.116Z,17.30
2018-09-04T02:57:16.569Z,17.24
2018-09-04T03:02:20.039Z,17.10
2018-09-04T03:07:23.585Z,17.15
2018-09-04T03:12:27.129Z,17.24
2018-09-04T03:17:30.706Z,17.28
2018-09-04T03:22:34.230Z,17.29
2018-09-04T03:27:37.744Z,17.28
2018-09-04T03:32:41.256Z,17.33
2018-09-04T03:37:44.815Z,17.32
2018-09-04T03:42:48.372Z,17.30
2018-09-04T03:47:51.914Z,17.28
2018-09-04T03:52:55.453Z,17.27
2018-09-04T03:57:59.029Z,17.21
2018-09-04T04:03:02.486Z,17.23
2018-09-04T04:08:05.961Z,17.23
2018-09-04T04:13:09.545Z,17.15
2018-09-04T04:18:13.131Z,17.07
2018-09-04T04:23:16.685Z,17.08
2018-09-04T04:28:20.175Z,17.06
2018-09-04T04:33:23.762Z,16.93
2018-09-04T04:38:27.294Z,16.95
2018-09-04T04:43:30.806Z,17.00
2018-09-04T04:48:34.317Z,17.05
2018-09-04T04:53:37.870Z,17.07
2018-09-04T04:58:41.349Z,16.99
2018-09-04T05:03:44.812Z,17.02
2018-09-04T05:08:48.277Z,17.08
2018-09-04T05:13:51.851Z,17.11
2018-09-04T05:18:55.318Z,17.00
2018-09-04T05:23:58.917Z,17.09
2018-09-04T05:29:02.407Z,17.16
2018-09-04T05:34:05.888Z,17.23
2018-09-04T05:39:10.325Z,17.33
2018-09-04T05:44:13.857Z,17.40
2018-09-04T05:49:19.701Z,17.51
2018-09-04T05:54:23.193Z,17.54
2018-09-04T05:59:26.786Z,17.65
2018-09-04T06:04:30.282Z,17.87
2018-09-04T06:09:33.822Z,17.96
2018-09-04T06:14:37.374Z,18.01
2018-09-04T06:19:40.796Z,18.10
2018-09-04T06:24:44.286Z,18.15
2018-09-04T06:29:47.795Z,18.14
2018-09-04T06:34:51.333Z,18.16
2018-09-04T06:39:55.011Z,18.25
2018-09-04T06:44:58.500Z,18.32
2018-09-04T06:50:02.309Z,18.41
2018-09-04T06:55:06.039Z,18.53
2018-09-04T07:00:12.137Z,18.73
2018-09-04T07:05:15.696Z,18.93
2018-09-04T07:10:19.256Z,19.10
2018-09-04T07:15:22.792Z,19.21
2018-09-04T07:20:26.321Z,19.25
2018-09-04T07:25:29.789Z,19.35
2018-09-04T07:30:33.277Z,19.51
2018-09-04T07:35:36.808Z,19.65
2018-09-04T07:40:40.522Z,19.84
2018-09-04T07:45:44.049Z,20.03
2018-09-04T07:50:47.646Z,20.19
2018-09-04T07:55:51.184Z,20.33
2018-09-04T08:00:54.746Z,20.32
2018-09-04T08:05:58.219Z,20.46
2018-09-04T08:11:01.809Z,20.58
2018-09-04T08:16:05.646Z,20.61
2018-09-04T08:21:09.348Z,20.59
2018-09-04T08:26:12.950Z,20.70
2018-09-04T08:31:16.462Z,20.77
2018-09-04T08:36:19.961Z,20.89
2018-09-04T08:41:23.469Z,20.94
2018-09-04T08:46:26.955Z,20.91
2018-09-04T08:51:30.415Z,21.00
2018-09-04T08:56:33.901Z,21.18
2018-09-04T09:01:37.385Z,21.41
2018-09-04T09:06:40.829Z,21.60
2018-09-04T09:11:44.350Z,21.98
2018-09-04T09:16:47.908Z,22.03
2018-09-04T09:21:51.325Z,22.10
2018-09-04T09:26:54.943Z,22.22
2018-09-04T09:31:58.455Z,22.36
2018-09-04T09:37:01.965Z,22.63
2018-09-04T09:42:05.425Z,22.69
2018-09-04T09:47:08.930Z,22.69
2018-09-04T09:52:12.483Z,22.77
2018-09-04T09:57:16.014Z,22.93
2018-09-04T10:02:22.089Z,23.06
2018-09-04T10:07:25.663Z,23.33
2018-09-04T10:12:29.090Z,23.58
2018-09-04T10:17:32.500Z,23.69
2018-09-04T10:22:35.948Z,23.91
2018-09-04T10:27:39.478Z,24.19
2018-09-04T10:32:54.015Z,24.44
2018-09-04T10:37:57.521Z,24.61
2018-09-04T10:43:00.966Z,24.41
2018-09-04T10:48:04.531Z,24.53
2018-09-04T10:53:08.060Z,24.80
2018-09-04T10:58:11.524Z,25.27
2018-09-04T11:03:14.987Z,24.37
2018-09-04T11:08:18.996Z,23.57
2018-09-04T11:13:22.607Z,24.27
2018-09-04T11:18:26.065Z,24.50
2018-09-04T11:23:29.776Z,24.74
2018-09-04T11:28:35.185Z,33.42
2018-09-04T11:33:39.077Z,35.49
2018-09-04T11:38:42.587Z,35.69
2018-09-04T11:43:46.137Z,38.45
2018-09-04T11:48:49.682Z,38.58
2018-09-04T11:53:53.138Z,41.03
2018-09-04T11:58:56.635Z,42.17
2018-09-04T12:04:00.112Z,38.30
2018-09-04T12:09:03.820Z,31.76
2018-09-04T12:14:07.247Z,29.54
2018-09-04T12:19:10.741Z,28.04
2018-09-04T12:24:14.179Z,26.92
2018-09-04T12:29:17.658Z,29.51
2018-09-04T12:34:21.230Z,35.42
2018-09-04T12:39:24.701Z,40.75
2018-09-04T12:44:28.365Z,41.26
2018-09-04T12:49:31.769Z,44.20
2018-09-04T12:54:35.378Z,42.61
2018-09-04T12:59:38.922Z,43.50
2018-09-04T13:04:42.377Z,44.34
2018-09-04T13:09:45.851Z,43.68
2018-09-04T13:14:49.486Z,40.27
2018-09-04T13:19:53.040Z,38.65
2018-09-04T13:24:56.535Z,36.00
2018-09-04T13:30:00.213Z,33.69
2018-09-04T13:35:03.861Z,34.54
2018-09-04T13:40:07.937Z,35.02
2018-09-04T13:45:11.433Z,36.24
2018-09-04T13:50:14.965Z,33.13
2018-09-04T13:55:18.399Z,30.54
2018-09-04T14:00:22.864Z,29.37
2018-09-04T14:05:26.397Z,29.70
2018-09-04T14:10:29.868Z,28.91
2018-09-04T14:15:33.388Z,28.95
2018-09-04T14:20:43.584Z,29.09
2018-09-04T14:25:47.025Z,29.03
2018-09-04T14:30:50.588Z,29.45
2018-09-04T14:35:54.084Z,29.58
2018-09-04T14:40:57.614Z,29.49
2018-09-04T14:46:01.149Z,29.25
2018-09-04T14:51:04.593Z,28.90
2018-09-04T14:56:08.094Z,28.89
2018-09-04T15:01:11.571Z,28.78
2018-09-04T15:06:15.121Z,28.67
2018-09-04T15:11:18.621Z,28.40
2018-09-04T15:16:22.141Z,28.06
2018-09-04T15:21:29.881Z,27.82
2018-09-04T15:26:33.324Z,27.99
2018-09-04T15:31:36.944Z,27.88
2018-09-04T15:36:40.364Z,27.91
2018-09-04T15:41:43.841Z,27.83
2018-09-04T15:46:47.373Z,27.98
2018-09-04T15:51:50.837Z,28.13
2018-09-04T15:56:54.423Z,28.02
2018-09-04T16:01:57.811Z,28.56
2018-09-04T16:07:01.297Z,28.64
2018-09-04T16:12:04.797Z,28.68
2018-09-04T16:17:08.361Z,28.55
2018-09-04T16:22:11.834Z,28.30
2018-09-04T16:27:15.873Z,28.46
2018-09-04T16:32:19.350Z,28.22
2018-09-04T16:37:22.855Z,27.83
2018-09-04T16:42:26.448Z,27.46
2018-09-04T16:47:30.481Z,27.10
2018-09-04T16:52:33.926Z,26.70
2018-09-04T16:57:37.410Z,26.27
2018-09-04T17:02:40.950Z,25.94
2018-09-04T17:07:44.533Z,25.57
2018-09-04T17:12:48.011Z,25.31
2018-09-04T17:17:51.585Z,25.18
2018-09-04T17:22:55.368Z,25.02
2018-09-04T17:27:59.130Z,24.91
2018-09-04T17:33:02.966Z,24.80
2018-09-04T17:38:06.532Z,24.71
2018-09-04T17:43:13.426Z,24.51
2018-09-04T17:48:17.038Z,24.39
2018-09-04T17:53:23.967Z,24.20
2018-09-04T17:58:28.118Z,23.98
2018-09-04T18:03:32.494Z,23.77
2018-09-04T18:08:36.251Z,23.57
2018-09-04T18:13:39.834Z,23.40
2018-09-04T18:18:43.365Z,23.32
2018-09-04T18:23:46.966Z,23.12
2018-09-04T18:28:50.912Z,22.84
2018-09-04T18:33:54.442Z,22.77
2018-09-04T18:38:58.025Z,22.64
2018-09-04T18:44:01.573Z,22.54
2018-09-04T18:49:06.390Z,22.39
2018-09-04T18:54:11.065Z,22.24
2018-09-04T18:59:14.549Z,22.17
2018-09-04T19:04:19.282Z,22.08
2018-09-04T19:09:25.086Z,21.78
2018-09-04T19:14:29.490Z,21.70
2018-09-04T19:19:35.049Z,21.60
2018-09-04T19:24:40.106Z,21.65
2018-09-04T19:29:43.940Z,21.63
2018-09-04T19:34:49.789Z,21.61
2018-09-04T19:39:54.467Z,21.42
2018-09-04T19:45:00.225Z,21.36
2018-09-04T19:50:04.268Z,21.22
2018-09-04T19:55:10.416Z,21.07
2018-09-04T20:00:15.255Z,21.03
2018-09-04T20:05:20.440Z,21.02
2018-09-04T20:10:24.818Z,20.91
2018-09-04T20:15:29.367Z,20.79
2018-09-04T20:20:33.656Z,20.59
2018-09-04T20:25:38.803Z,20.68
2018-09-04T20:30:42.311Z,20.60
2018-09-04T20:35:47.293Z,20.56
2018-09-04T20:40:50.828Z,20.41
2018-09-04T20:45:54.373Z,20.42
2018-09-04T20:50:57.891Z,20.28
2018-09-04T20:56:01.452Z,20.35
2018-09-04T21:01:16.276Z,20.19
2018-09-04T21:06:31.262Z,20.22
2018-09-04T21:11:34.838Z,20.26
2018-09-04T21:16:38.391Z,20.12
2018-09-04T21:21:41.996Z,20.10
2018-09-04T21:26:45.509Z,19.89
2018-09-04T21:31:49.243Z,19.86
2018-09-04T21:36:53.080Z,19.83
2018-09-04T21:41:56.622Z,19.73
2018-09-04T21:47:00.546Z,19.70
2018-09-04T21:52:04.258Z,19.71
2018-09-04T21:57:07.805Z,19.68
2018-09-04T22:02:11.345Z,19.62
2018-09-04T22:07:15.020Z,19.49
2018-09-04T22:12:18.652Z,19.41
2018-09-04T22:17:22.300Z,19.53
2018-09-04T22:22:25.892Z,19.54
2018-09-04T22:27:29.368Z,19.54
2018-09-04T22:32:33.097Z,19.58
2018-09-04T22:37:36.689Z,19.49
2018-09-04T22:42:40.418Z,19.37
2018-09-04T22:47:44.285Z,19.32
2018-09-04T22:52:47.773Z,19.13
2018-09-04T22:57:51.401Z,18.89
2018-09-04T23:02:54.873Z,18.90
2018-09-04T23:07:58.745Z,18.88
2018-09-04T23:13:02.242Z,18.81
2018-09-04T23:18:05.752Z,18.86
2018-09-04T23:23:09.199Z,18.85
2018-09-04T23:28:12.640Z,18.66
2018-09-04T23:33:52.231Z,18.53
2018-09-04T23:38:55.814Z,18.42
2018-09-04T23:43:59.392Z,18.52
2018-09-04T23:49:02.870Z,18.60
2018-09-04T23:54:06.433Z,18.61
2018-09-04T23:59:10.022Z,18.45
